Terminal Aerodrome Forecast
Issued by NWS Albany, NY

Home | Current Version | Previous Version | Text Only | Print | Product List | Glossary On
Versions: 1 2 3 4 5 6 7 8 9 10 11 12 13 14 15 16 17
000
FTUS41 KALY 152329
TAFALB
TAF
KALB 152329Z 1600/1624 18005KT P6SM BKN100 OVC150
     FM161300 27012G20KT P6SM VCSH BKN040
     FM162200 30010KT P6SM SCT040=

USA.gov is the U.S. government's official web portal to all federal, state and local government web resources and services.